createdAt,value
2023-04-23T00:00:58.099Z,23.73
2023-04-23T00:03:29.722Z,23.03
2023-04-23T00:06:01.063Z,24.60
2023-04-23T00:08:35.092Z,24.27
2023-04-23T00:11:06.411Z,24.77
2023-04-23T00:13:36.616Z,24.43
2023-04-23T00:16:07.456Z,23.53
2023-04-23T00:18:37.859Z,24.03
2023-04-23T00:21:08.893Z,25.33
2023-04-23T00:23:42.062Z,24.17
2023-04-23T00:26:12.088Z,24.43
2023-04-23T00:28:42.173Z,25.23
2023-04-23T00:31:12.190Z,24.73
2023-04-23T00:33:42.188Z,24.80
2023-04-23T00:36:12.241Z,24.83
2023-04-23T00:38:44.782Z,24.67
2023-04-23T00:41:15.057Z,24.27
2023-04-23T00:43:45.978Z,24.53
2023-04-23T00:46:16.987Z,24.30
2023-04-23T00:48:48.546Z,24.23
2023-04-23T00:53:53.190Z,23.90
2023-04-23T00:56:24.107Z,24.03
2023-04-23T00:58:54.700Z,23.70
2023-04-23T01:01:26.325Z,23.93
2023-04-23T01:03:57.012Z,23.73
2023-04-23T01:06:29.130Z,23.77
2023-04-23T01:09:02.066Z,24.37
2023-04-23T01:11:32.634Z,22.27
2023-04-23T01:14:02.619Z,22.97
2023-04-23T01:16:32.606Z,22.70
2023-04-23T01:19:02.634Z,24.00
2023-04-23T01:21:33.455Z,23.30
2023-04-23T01:24:06.413Z,22.47
2023-04-23T01:26:37.035Z,22.93
2023-04-23T01:29:07.132Z,22.17
2023-04-23T01:31:37.290Z,22.27
2023-04-23T01:34:07.475Z,22.73
2023-04-23T01:36:38.716Z,24.03
2023-04-23T01:39:11.823Z,22.13
2023-04-23T01:41:43.039Z,22.07
2023-04-23T01:44:13.190Z,21.20
2023-04-23T01:46:43.457Z,20.10
2023-04-23T01:49:13.888Z,21.87
2023-04-23T01:51:44.246Z,21.17
2023-04-23T01:54:16.803Z,20.27
2023-04-23T01:56:47.230Z,18.53
2023-04-23T01:59:17.068Z,19.60
2023-04-23T02:01:49.229Z,18.97
2023-04-23T02:04:20.354Z,18.93
2023-04-23T02:06:53.122Z,18.40
2023-04-23T02:09:25.620Z,18.63
2023-04-23T02:11:55.501Z,19.57
2023-04-23T02:14:25.761Z,18.80
2023-04-23T02:16:56.131Z,18.50
2023-04-23T02:19:26.690Z,18.20
2023-04-23T02:21:56.766Z,16.77
2023-04-23T02:24:29.413Z,17.13
2023-04-23T02:26:59.903Z,18.70
2023-04-23T02:29:29.789Z,16.97
2023-04-23T02:31:59.961Z,17.07
2023-04-23T02:34:30.024Z,17.00
2023-04-23T02:36:59.866Z,16.17
2023-04-23T02:39:32.660Z,15.60
2023-04-23T02:42:02.785Z,17.37
2023-04-23T02:44:32.688Z,16.13
2023-04-23T02:47:02.745Z,16.17
2023-04-23T02:49:32.844Z,15.50
2023-04-23T02:52:02.730Z,16.23
2023-04-23T02:54:37.259Z,15.87
2023-04-23T02:57:07.563Z,14.67
2023-04-23T02:59:37.551Z,15.93
2023-04-23T03:02:07.528Z,15.13
2023-04-23T03:04:37.749Z,14.83
2023-04-23T03:07:07.680Z,15.80
2023-04-23T03:09:40.477Z,15.40
2023-04-23T03:12:10.765Z,15.03
2023-04-23T03:14:41.245Z,16.50
2023-04-23T03:17:11.414Z,15.90
2023-04-23T03:19:41.305Z,16.63
2023-04-23T03:22:11.316Z,16.30
2023-04-23T03:24:43.990Z,15.70
2023-04-23T03:27:13.948Z,16.77
2023-04-23T03:29:44.296Z,15.80
2023-04-23T03:32:15.672Z,16.07
2023-04-23T03:34:45.555Z,16.00
2023-04-23T03:37:17.206Z,17.37
2023-04-23T03:39:49.871Z,16.00
2023-04-23T03:42:19.914Z,16.33
2023-04-23T03:44:49.832Z,17.07
2023-04-23T03:47:19.736Z,14.87
2023-04-23T03:49:49.773Z,17.13
2023-04-23T03:52:20.002Z,16.83
2023-04-23T03:54:52.672Z,16.60
2023-04-23T03:57:24.502Z,16.47
2023-04-23T03:59:54.362Z,16.13
2023-04-23T04:02:24.683Z,15.13
2023-04-23T04:04:55.450Z,15.70
2023-04-23T04:07:26.136Z,15.37
2023-04-23T04:09:58.690Z,15.33
2023-04-23T04:12:28.775Z,14.43
2023-04-23T04:14:58.953Z,14.10
2023-04-23T04:17:29.008Z,14.67
2023-04-23T04:19:58.938Z,13.70
2023-04-23T04:22:28.846Z,14.50
2023-04-23T04:25:01.324Z,13.43
2023-04-23T04:27:33.638Z,14.60
2023-04-23T04:30:05.754Z,14.70
2023-04-23T04:32:36.044Z,14.00
2023-04-23T04:35:05.977Z,14.43
2023-04-23T04:37:37.079Z,14.20
2023-04-23T04:40:11.793Z,16.60
2023-04-23T04:42:42.978Z,14.37
2023-04-23T04:45:14.082Z,16.87
2023-04-23T04:47:44.097Z,15.37
2023-04-23T04:50:14.745Z,16.33
2023-04-23T04:52:47.808Z,16.00
2023-04-23T04:55:20.326Z,15.70
2023-04-23T04:57:50.426Z,17.10
2023-04-23T05:00:28.021Z,16.77
2023-04-23T05:02:58.858Z,16.03
2023-04-23T05:05:30.416Z,17.73
2023-04-23T05:08:02.608Z,15.50
2023-04-23T05:10:35.307Z,17.50
2023-04-23T05:13:05.305Z,15.93
2023-04-23T05:15:35.198Z,14.90
2023-04-23T05:18:06.847Z,15.83
2023-04-23T05:20:37.013Z,15.53
2023-04-23T05:23:07.186Z,15.97
2023-04-23T05:25:39.953Z,15.10
2023-04-23T05:28:10.152Z,15.27
2023-04-23T05:30:40.153Z,14.20
2023-04-23T05:33:10.254Z,15.97
2023-04-23T05:35:40.301Z,14.83
2023-04-23T05:38:10.411Z,15.70
2023-04-23T05:40:43.040Z,14.07
2023-04-23T05:43:13.190Z,15.00
2023-04-23T05:45:46.268Z,13.37
2023-04-23T05:48:16.314Z,14.37
2023-04-23T05:50:46.671Z,13.67
2023-04-23T05:53:18.209Z,13.17
2023-04-23T05:55:50.932Z,12.80
2023-04-23T05:58:21.037Z,14.60
2023-04-23T06:00:50.995Z,12.30
2023-04-23T06:03:21.288Z,12.63
2023-04-23T06:05:51.505Z,13.20
2023-04-23T06:08:23.281Z,13.90
2023-04-23T06:10:57.237Z,12.77
2023-04-23T06:13:28.579Z,12.50
2023-04-23T06:15:58.470Z,12.23
2023-04-23T06:18:28.534Z,12.97
2023-04-23T06:20:58.375Z,12.53
2023-04-23T06:23:29.459Z,12.07
2023-04-23T06:26:02.074Z,12.57
2023-04-23T06:28:31.976Z,12.60
2023-04-23T06:31:02.894Z,12.43
2023-04-23T06:33:33.038Z,12.60
2023-04-23T06:36:03.059Z,12.70
2023-04-23T06:38:32.990Z,12.13
2023-04-23T06:41:06.470Z,11.80
2023-04-23T06:43:36.495Z,12.07
2023-04-23T06:46:06.416Z,12.23
2023-04-23T06:48:37.807Z,11.90
2023-04-23T06:51:08.345Z,11.27
2023-04-23T06:53:39.149Z,12.13
2023-04-23T06:56:12.140Z,10.97
2023-04-23T06:58:42.042Z,11.13
2023-04-23T07:01:12.164Z,11.97
2023-04-23T07:03:45.320Z,10.10
2023-04-23T07:06:15.392Z,11.07
2023-04-23T07:08:45.979Z,11.10
2023-04-23T07:11:18.554Z,10.27
2023-04-23T07:13:49.268Z,10.00
2023-04-23T07:16:21.694Z,10.23
2023-04-23T07:18:52.890Z,10.33
2023-04-23T07:21:22.863Z,9.00
2023-04-23T07:23:52.842Z,8.57
2023-04-23T07:26:25.658Z,8.67
2023-04-23T07:28:55.879Z,8.73
2023-04-23T07:31:26.211Z,9.47
2023-04-23T07:33:56.484Z,8.77
2023-04-23T07:36:26.834Z,8.13
2023-04-23T07:38:59.436Z,7.53
2023-04-23T07:41:32.067Z,7.70
2023-04-23T07:44:02.027Z,7.17
2023-04-23T07:46:32.367Z,6.90
2023-04-23T07:49:02.364Z,7.33
2023-04-23T07:51:32.343Z,7.40
2023-04-23T07:54:02.387Z,7.33
2023-04-23T07:56:35.404Z,6.20
2023-04-23T07:59:05.493Z,5.80
2023-04-23T08:01:36.092Z,5.93
2023-04-23T08:04:06.230Z,6.37
2023-04-23T08:06:39.628Z,5.93
2023-04-23T08:09:10.086Z,6.27
2023-04-23T08:11:42.743Z,6.00
2023-04-23T08:14:12.892Z,5.73
2023-04-23T08:16:42.768Z,5.73
2023-04-23T08:19:12.764Z,5.23
2023-04-23T08:21:42.776Z,5.77
2023-04-23T08:24:12.773Z,6.18
2023-04-23T08:26:45.332Z,5.73
2023-04-23T08:29:15.346Z,4.93
2023-04-23T08:31:45.428Z,4.93
2023-04-23T08:34:15.805Z,4.95
2023-04-23T08:36:46.609Z,4.55
2023-04-23T08:39:19.099Z,4.53
2023-04-23T08:41:57.858Z,4.10
2023-04-23T08:44:29.485Z,4.68
2023-04-23T08:47:01.195Z,4.72
2023-04-23T08:49:36.660Z,4.95
2023-04-23T08:52:17.947Z,3.92
2023-04-23T08:54:52.366Z,4.45
2023-04-23T08:57:25.698Z,3.83
2023-04-23T08:59:56.372Z,3.65
2023-04-23T09:02:27.361Z,3.40
2023-04-23T09:04:57.736Z,3.83
2023-04-23T09:07:28.019Z,3.53
2023-04-23T09:09:57.848Z,3.38
2023-04-23T09:12:30.913Z,3.22
2023-04-23T09:15:00.935Z,3.17
2023-04-23T09:17:33.103Z,3.05
2023-04-23T09:20:04.168Z,3.10
2023-04-23T09:22:47.076Z,3.22
2023-04-23T09:25:19.594Z,3.45
2023-04-23T09:27:54.311Z,3.75
2023-04-23T09:30:25.883Z,3.28
2023-04-23T09:32:58.295Z,3.55
2023-04-23T09:35:31.616Z,3.58
2023-04-23T09:38:08.170Z,3.63
2023-04-23T09:40:39.072Z,3.30
2023-04-23T09:43:14.039Z,1.88
2023-04-23T09:45:51.681Z,2.90
2023-04-23T09:48:21.670Z,2.78
2023-04-23T09:50:51.604Z,2.70
2023-04-23T09:53:24.361Z,2.17
2023-04-23T09:55:56.499Z,2.20
2023-04-23T09:58:29.210Z,2.53
2023-04-23T10:01:10.491Z,2.25
2023-04-23T10:03:46.231Z,2.55
2023-04-23T10:06:36.387Z,2.53
2023-04-23T10:09:08.388Z,2.28
2023-04-23T10:11:38.465Z,2.65
2023-04-23T10:14:12.124Z,2.05
2023-04-23T10:16:49.128Z,2.22
2023-04-23T10:19:22.837Z,2.28
2023-04-23T10:22:02.352Z,2.60
2023-04-23T10:24:43.819Z,2.30
2023-04-23T10:27:27.004Z,2.50
2023-04-23T10:30:10.827Z,2.47
2023-04-23T10:32:41.949Z,4.22
2023-04-23T10:35:13.111Z,3.08
2023-04-23T10:37:43.536Z,2.10
2023-04-23T10:40:16.529Z,2.30
2023-04-23T10:42:47.635Z,1.90
2023-04-23T10:45:25.437Z,2.22
2023-04-23T10:47:58.081Z,2.50
2023-04-23T10:50:30.162Z,2.50
2023-04-23T10:53:01.074Z,2.35
2023-04-23T10:55:33.004Z,2.45
2023-04-23T10:58:05.449Z,2.42
2023-04-23T11:00:49.163Z,2.28
2023-04-23T11:03:32.430Z,2.28
2023-04-23T11:06:05.171Z,2.03
2023-04-23T11:08:37.815Z,2.17
2023-04-23T11:11:11.338Z,2.00
2023-04-23T11:13:54.564Z,1.88
2023-04-23T11:16:27.289Z,1.75
2023-04-23T11:19:06.848Z,1.63
2023-04-23T11:22:01.770Z,2.38
2023-04-23T11:24:33.467Z,1.90
2023-04-23T11:27:04.540Z,1.73
2023-04-23T11:29:34.435Z,2.03
2023-04-23T11:32:10.993Z,1.95
2023-04-23T11:34:43.660Z,1.60
2023-04-23T11:37:15.811Z,1.70
2023-04-23T11:39:47.815Z,1.92
2023-04-23T11:42:20.438Z,1.60
2023-04-23T11:44:50.993Z,1.80
2023-04-23T11:47:23.836Z,1.75
2023-04-23T11:49:53.732Z,1.52
2023-04-23T11:52:23.719Z,1.55
2023-04-23T11:54:53.587Z,1.55
2023-04-23T11:57:24.834Z,1.70
2023-04-23T11:59:56.906Z,1.42
2023-04-23T12:02:29.985Z,1.38
2023-04-23T12:04:59.993Z,1.15
2023-04-23T12:07:38.356Z,1.40
2023-04-23T12:10:09.462Z,1.20
2023-04-23T12:12:40.650Z,1.45
2023-04-23T12:15:11.649Z,1.33
2023-04-23T12:17:46.827Z,1.00
2023-04-23T12:20:21.396Z,1.15
2023-04-23T12:22:51.720Z,1.10
2023-04-23T12:25:25.741Z,1.20
2023-04-23T12:27:55.628Z,1.08
2023-04-23T12:30:25.779Z,0.90
2023-04-23T12:33:02.695Z,1.00
2023-04-23T12:35:43.135Z,0.90
2023-04-23T12:38:27.530Z,1.30
2023-04-23T12:40:58.581Z,1.08
2023-04-23T12:43:30.194Z,0.90
2023-04-23T12:46:00.220Z,0.93
2023-04-23T12:48:33.382Z,0.98
2023-04-23T12:51:04.987Z,0.90
2023-04-23T12:53:34.913Z,1.17
2023-04-23T12:56:05.295Z,1.08
2023-04-23T12:58:35.246Z,1.20
2023-04-23T13:01:05.290Z,1.20
2023-04-23T13:03:37.814Z,0.98
2023-04-23T13:06:08.220Z,1.00
2023-04-23T13:08:38.310Z,0.80
2023-04-23T13:11:08.528Z,1.20
2023-04-23T13:13:38.381Z,0.90
2023-04-23T13:16:08.684Z,1.33
2023-04-23T13:18:41.327Z,2.33
2023-04-23T13:21:12.727Z,0.95
2023-04-23T13:23:42.559Z,1.10
2023-04-23T13:26:12.610Z,0.90
2023-04-23T13:28:43.024Z,1.10
2023-04-23T13:31:15.415Z,1.13
2023-04-23T13:33:47.950Z,1.45
2023-04-23T13:36:17.895Z,0.93
2023-04-23T13:38:47.821Z,1.08
2023-04-23T13:41:17.727Z,0.98
2023-04-23T13:43:47.627Z,0.88
2023-04-23T13:46:17.603Z,0.82
2023-04-23T13:48:50.145Z,1.23
2023-04-23T13:51:34.134Z,0.90
2023-04-23T13:54:05.149Z,1.00
2023-04-23T13:56:37.182Z,0.80
2023-04-23T13:59:18.420Z,0.80
2023-04-23T14:01:50.353Z,0.80
2023-04-23T14:04:25.536Z,1.00
2023-04-23T14:06:55.908Z,0.98
2023-04-23T14:09:26.151Z,1.20
2023-04-23T14:11:56.379Z,1.10
2023-04-23T14:14:26.295Z,1.10
2023-04-23T14:16:56.229Z,1.10
2023-04-23T14:19:30.648Z,1.20
2023-04-23T14:22:00.633Z,0.90
2023-04-23T14:24:37.548Z,1.02
2023-04-23T14:27:07.715Z,1.27
2023-04-23T14:29:43.268Z,1.00
2023-04-23T14:32:13.986Z,0.80
2023-04-23T14:34:47.529Z,0.73
2023-04-23T14:37:17.781Z,1.27
2023-04-23T14:39:47.724Z,1.13
2023-04-23T14:42:18.013Z,0.95
2023-04-23T14:44:47.943Z,1.02
2023-04-23T14:47:19.600Z,1.30
2023-04-23T14:49:53.394Z,1.17
2023-04-23T14:52:26.125Z,0.90
2023-04-23T14:54:56.183Z,1.10
2023-04-23T14:57:26.364Z,0.93
2023-04-23T14:59:56.698Z,0.90
2023-04-23T15:02:27.139Z,1.10
2023-04-23T15:04:59.991Z,1.40
2023-04-23T15:07:31.993Z,0.80
2023-04-23T15:10:06.475Z,1.00
2023-04-23T15:12:53.409Z,1.23
2023-04-23T15:15:48.500Z,0.80
2023-04-23T15:18:19.217Z,1.00
2023-04-23T15:20:51.777Z,1.00
2023-04-23T15:23:22.342Z,1.10
2023-04-23T15:25:52.714Z,1.20
2023-04-23T15:28:23.785Z,1.10
2023-04-23T15:30:53.746Z,0.80
2023-04-23T15:33:23.626Z,0.70
2023-04-23T15:35:59.839Z,0.60
2023-04-23T15:38:30.900Z,0.88
2023-04-23T15:41:01.281Z,1.30
2023-04-23T15:43:31.653Z,0.80
2023-04-23T15:46:01.733Z,0.95
2023-04-23T15:48:31.742Z,1.50
2023-04-23T15:51:04.388Z,1.30
2023-04-23T15:53:34.381Z,1.20
2023-04-23T15:56:05.098Z,1.15
2023-04-23T15:58:35.071Z,1.00
2023-04-23T16:01:07.628Z,1.10
2023-04-23T16:03:37.880Z,1.13
2023-04-23T16:06:12.043Z,1.65
2023-04-23T16:08:42.631Z,1.50
2023-04-23T16:11:13.526Z,1.55
2023-04-23T16:13:43.506Z,1.27
2023-04-23T16:16:13.438Z,1.98
2023-04-23T16:18:43.503Z,2.28
2023-04-23T16:21:16.450Z,1.83
2023-04-23T16:23:46.392Z,1.90
2023-04-23T16:26:16.303Z,2.47
2023-04-23T16:28:51.853Z,3.10
2023-04-23T16:31:31.019Z,2.13
2023-04-23T16:34:01.296Z,1.70
2023-04-23T16:36:37.221Z,2.22
2023-04-23T16:39:07.275Z,2.55
2023-04-23T16:41:37.276Z,2.50
2023-04-23T16:44:07.224Z,2.47
2023-04-23T16:46:37.438Z,2.95
2023-04-23T16:49:07.737Z,3.40
2023-04-23T16:51:40.324Z,2.67
2023-04-23T16:54:10.301Z,3.08
2023-04-23T16:56:40.339Z,2.70
2023-04-23T16:59:10.215Z,2.70
2023-04-23T17:01:40.318Z,2.05
2023-04-23T17:04:10.801Z,2.30
2023-04-23T17:06:43.506Z,2.17
2023-04-23T17:09:13.452Z,2.15
2023-04-23T17:11:43.296Z,2.42
2023-04-23T17:14:13.325Z,2.20
2023-04-23T17:16:43.686Z,2.47
2023-04-23T17:19:13.861Z,2.90
2023-04-23T17:21:46.746Z,3.33
2023-04-23T17:24:16.790Z,2.63
2023-04-23T17:26:48.476Z,2.90
2023-04-23T17:29:18.439Z,2.50
2023-04-23T17:31:48.599Z,2.90
2023-04-23T17:34:18.783Z,2.50
2023-04-23T17:36:51.642Z,2.40
2023-04-23T17:39:23.891Z,2.70
2023-04-23T17:41:53.940Z,2.67
2023-04-23T17:44:23.984Z,2.30
2023-04-23T17:46:55.574Z,3.00
2023-04-23T17:49:25.522Z,3.27
2023-04-23T17:51:58.140Z,2.50
2023-04-23T17:54:29.064Z,2.87
2023-04-23T17:56:59.346Z,3.20
2023-04-23T17:59:29.360Z,3.60
2023-04-23T18:01:59.476Z,3.17
2023-04-23T18:04:30.719Z,3.40
2023-04-23T18:07:03.449Z,3.37
2023-04-23T18:09:33.529Z,3.20
2023-04-23T18:12:04.303Z,3.83
2023-04-23T18:14:34.303Z,3.67
2023-04-23T18:17:04.382Z,3.43
2023-04-23T18:19:34.479Z,3.53
2023-04-23T18:22:08.481Z,2.87
2023-04-23T18:24:38.616Z,2.90
2023-04-23T18:27:08.630Z,3.10
2023-04-23T18:29:38.750Z,3.03
2023-04-23T18:32:08.868Z,2.90
2023-04-23T18:34:41.995Z,2.67
2023-04-23T18:37:35.628Z,2.63
2023-04-23T18:40:05.938Z,2.40
2023-04-23T18:42:35.931Z,2.70
2023-04-23T18:45:06.318Z,2.53
2023-04-23T18:47:44.368Z,2.13
2023-04-23T18:50:33.683Z,2.57
2023-04-23T18:53:06.419Z,2.10
2023-04-23T18:55:38.214Z,1.83
2023-04-23T18:58:08.981Z,1.90
2023-04-23T19:00:40.470Z,1.67
2023-04-23T19:03:23.665Z,1.67
2023-04-23T19:05:55.728Z,1.50
2023-04-23T19:08:29.044Z,1.40
2023-04-23T19:10:59.575Z,1.70
2023-04-23T19:13:29.579Z,1.20
2023-04-23T19:15:59.803Z,1.40
2023-04-23T19:18:31.117Z,1.30
2023-04-23T19:21:01.339Z,1.20
2023-04-23T19:23:33.888Z,1.40
2023-04-23T19:26:04.133Z,1.20
2023-04-23T19:28:34.822Z,1.13
2023-04-23T19:31:06.863Z,1.03
2023-04-23T19:33:37.756Z,1.03
2023-04-23T19:36:08.250Z,1.13
2023-04-23T19:38:42.549Z,1.20
2023-04-23T19:41:12.599Z,1.33
2023-04-23T19:43:42.744Z,1.10
2023-04-23T19:46:12.866Z,1.30
2023-04-23T19:48:42.805Z,1.30
2023-04-23T19:51:12.852Z,1.07
2023-04-23T19:53:45.557Z,1.10
2023-04-23T19:56:15.721Z,1.27
2023-04-23T19:58:46.087Z,1.23
2023-04-23T20:01:16.239Z,1.10
2023-04-23T20:03:48.122Z,1.13
2023-04-23T20:06:18.195Z,0.97
2023-04-23T20:09:07.841Z,1.40
2023-04-23T20:11:38.573Z,1.10
2023-04-23T20:14:08.637Z,1.10
2023-04-23T20:16:39.024Z,0.90
2023-04-23T20:19:11.778Z,0.93
2023-04-23T20:21:42.946Z,1.00
2023-04-23T20:24:16.950Z,1.07
2023-04-23T20:26:46.907Z,1.00
2023-04-23T20:29:17.210Z,1.10
2023-04-23T20:31:49.657Z,1.00
2023-04-23T20:34:21.528Z,0.80
2023-04-23T20:36:51.424Z,0.77
2023-04-23T20:39:24.509Z,0.90
2023-04-23T20:41:55.171Z,0.73
2023-04-23T20:44:26.322Z,0.40
2023-04-23T20:46:58.046Z,0.40
2023-04-23T20:49:28.234Z,0.53
2023-04-23T20:51:58.153Z,0.50
2023-04-23T20:54:31.332Z,0.40
2023-04-23T20:57:02.570Z,0.40
2023-04-23T20:59:32.915Z,0.50
2023-04-23T21:02:04.068Z,0.40
2023-04-23T21:04:34.075Z,0.47
2023-04-23T21:07:04.308Z,0.90
2023-04-23T21:09:37.170Z,1.40
2023-04-23T21:12:07.759Z,1.90
2023-04-23T21:14:37.653Z,2.33
2023-04-23T21:17:07.638Z,2.70
2023-04-23T21:19:37.589Z,1.80
2023-04-23T21:22:08.897Z,1.83
2023-04-23T21:24:41.628Z,1.10
2023-04-23T21:27:12.568Z,0.70
2023-04-23T21:29:42.757Z,1.00
2023-04-23T21:32:13.038Z,0.70
2023-04-23T21:34:43.142Z,0.70
2023-04-23T21:37:13.238Z,0.70
2023-04-23T21:39:46.046Z,0.60
2023-04-23T21:42:16.343Z,0.60
2023-04-23T21:44:46.456Z,0.90
2023-04-23T21:47:16.770Z,0.90
2023-04-23T21:49:46.841Z,1.30
2023-04-23T21:52:17.635Z,1.10
2023-04-23T21:54:50.333Z,0.83
2023-04-23T21:57:20.274Z,1.10
2023-04-23T21:59:50.518Z,0.80
2023-04-23T22:02:20.571Z,0.80
2023-04-23T22:04:50.692Z,1.00
2023-04-23T22:07:21.052Z,1.60
2023-04-23T22:09:53.634Z,1.20
2023-04-23T22:12:23.757Z,0.90
2023-04-23T22:14:54.096Z,1.40
2023-04-23T22:17:26.477Z,1.20
2023-04-23T22:19:57.267Z,0.80
2023-04-23T22:22:27.219Z,1.03
2023-04-23T22:24:59.799Z,0.90
2023-04-23T22:27:34.751Z,0.90
2023-04-23T22:30:06.834Z,1.00
2023-04-23T22:32:36.883Z,0.97
2023-04-23T22:35:08.093Z,1.13
2023-04-23T22:37:38.592Z,1.50
2023-04-23T22:40:13.073Z,0.93
2023-04-23T22:42:42.943Z,0.90
2023-04-23T22:45:13.772Z,0.60
2023-04-23T22:47:44.228Z,0.93
2023-04-23T22:50:14.528Z,0.70
2023-04-23T22:52:48.021Z,0.80
2023-04-23T22:55:20.883Z,0.90
2023-04-23T22:57:51.385Z,0.60
2023-04-23T23:00:21.357Z,0.60
2023-04-23T23:02:51.326Z,0.70
2023-04-23T23:05:21.638Z,0.70
2023-04-23T23:07:52.126Z,0.90
2023-04-23T23:10:24.623Z,0.90
2023-04-23T23:12:54.489Z,1.00
2023-04-23T23:15:24.787Z,0.70
2023-04-23T23:17:54.778Z,0.70
2023-04-23T23:20:24.886Z,0.70
2023-04-23T23:22:54.816Z,0.50
2023-04-23T23:25:27.334Z,1.00
2023-04-23T23:27:57.289Z,1.10
2023-04-23T23:30:27.344Z,1.20
2023-04-23T23:32:59.917Z,1.20
2023-04-23T23:35:30.185Z,1.37
2023-04-23T23:38:00.114Z,1.10
2023-04-23T23:40:32.797Z,1.60
2023-04-23T23:43:02.669Z,1.27
2023-04-23T23:45:32.722Z,1.30
2023-04-23T23:48:02.732Z,1.50
2023-04-23T23:50:32.704Z,1.40
2023-04-23T23:53:02.661Z,1.40
2023-04-23T23:55:37.891Z,1.00
2023-04-23T23:58:07.774Z,0.80
